createdAt,value
2018-12-31T00:01:44.333Z,102472.14
2018-12-31T00:04:12.654Z,102471.38
2018-12-31T00:06:40.965Z,102468.31
2018-12-31T00:09:09.285Z,102471.30
2018-12-31T00:11:37.586Z,102469.03
2018-12-31T00:14:05.974Z,102470.64
2018-12-31T00:16:34.275Z,102477.77
2018-12-31T00:19:02.649Z,102475.61
2018-12-31T00:21:30.975Z,102473.81
2018-12-31T00:23:59.520Z,102482.47
2018-12-31T00:26:28.095Z,102474.10
2018-12-31T00:28:56.382Z,102474.86
2018-12-31T00:31:24.682Z,102472.23
2018-12-31T00:33:53.007Z,102477.73
2018-12-31T00:36:21.311Z,102481.97
2018-12-31T00:38:49.626Z,102476.63
2018-12-31T00:41:17.916Z,102480.09
2018-12-31T00:43:46.201Z,102480.77
2018-12-31T00:46:14.516Z,102483.30
2018-12-31T00:48:42.810Z,102485.56
2018-12-31T00:51:11.132Z,102489.80
2018-12-31T00:53:39.422Z,102486.30
2018-12-31T00:56:07.746Z,102484.71
2018-12-31T00:58:36.305Z,102481.52
2018-12-31T01:01:04.599Z,102484.53
2018-12-31T01:03:32.907Z,102484.71
2018-12-31T01:06:01.215Z,102487.59
2018-12-31T01:08:29.533Z,102489.95
2018-12-31T01:10:57.837Z,102488.52
2018-12-31T01:13:26.393Z,102487.13
2018-12-31T01:15:54.698Z,102485.05
2018-12-31T01:18:23.027Z,102495.48
2018-12-31T01:20:51.329Z,102491.43
2018-12-31T01:23:19.654Z,102484.86
2018-12-31T01:25:47.928Z,102489.28
2018-12-31T01:28:16.234Z,102490.12
2018-12-31T01:30:44.539Z,102489.83
2018-12-31T01:33:12.848Z,102491.06
2018-12-31T01:35:41.157Z,102490.48
2018-12-31T01:38:09.450Z,102485.14
2018-12-31T01:40:37.769Z,102481.56
2018-12-31T01:43:06.139Z,102482.03
2018-12-31T01:45:34.522Z,102481.67
2018-12-31T01:48:02.813Z,102475.38
2018-12-31T01:50:31.134Z,102483.66
2018-12-31T01:52:59.420Z,102481.27
2018-12-31T01:55:27.731Z,102492.91
2018-12-31T01:57:56.106Z,102486.63
2018-12-31T02:00:24.418Z,102495.34
2018-12-31T02:02:52.724Z,102499.58
2018-12-31T02:05:21.031Z,102509.54
2018-12-31T02:07:49.337Z,102499.02
2018-12-31T02:10:17.626Z,102500.34
2018-12-31T02:12:45.950Z,102502.85
2018-12-31T02:15:14.242Z,102494.13
2018-12-31T02:17:42.544Z,102492.64
2018-12-31T02:20:10.855Z,102490.02
2018-12-31T02:22:40.828Z,102491.41
2018-12-31T02:25:09.041Z,102494.98
2018-12-31T02:27:37.334Z,102499.77
2018-12-31T02:30:05.679Z,102493.20
2018-12-31T02:32:33.931Z,102493.84
2018-12-31T02:35:02.253Z,102483.80
2018-12-31T02:37:30.545Z,102483.69
2018-12-31T02:39:59.123Z,102485.95
2018-12-31T02:42:27.412Z,102489.81
2018-12-31T02:44:55.738Z,102490.91
2018-12-31T02:47:24.026Z,102491.77
2018-12-31T02:49:52.344Z,102494.01
2018-12-31T02:52:20.635Z,102495.72
2018-12-31T02:54:48.951Z,102497.28
2018-12-31T02:57:17.261Z,102490.52
2018-12-31T02:59:45.650Z,102502.62
2018-12-31T03:02:13.957Z,102485.17
2018-12-31T03:04:42.265Z,102485.36
2018-12-31T03:07:10.562Z,102484.72
2018-12-31T03:09:38.851Z,102472.25
2018-12-31T03:12:07.168Z,102476.91
2018-12-31T03:14:35.543Z,102476.55
2018-12-31T03:17:03.863Z,102478.23
2018-12-31T03:19:32.150Z,102476.23
2018-12-31T03:22:00.458Z,102476.36
2018-12-31T03:24:28.994Z,102474.20
2018-12-31T03:26:57.297Z,102476.44
2018-12-31T03:29:25.597Z,102475.52
2018-12-31T03:31:54.176Z,102476.63
2018-12-31T03:34:22.471Z,102467.79
2018-12-31T03:36:50.780Z,102472.30
2018-12-31T03:39:19.085Z,102468.55
2018-12-31T03:41:47.555Z,102462.92
2018-12-31T03:44:15.876Z,102459.26
2018-12-31T03:46:44.188Z,102449.02
2018-12-31T03:49:12.508Z,102450.97
2018-12-31T03:51:40.808Z,102460.06
2018-12-31T03:54:09.121Z,102456.12
2018-12-31T03:56:37.425Z,102460.91
2018-12-31T03:59:05.731Z,102461.86
2018-12-31T04:01:34.021Z,102468.55
2018-12-31T04:04:02.324Z,102465.64
2018-12-31T04:06:30.628Z,102469.95
2018-12-31T04:08:58.936Z,102461.86
2018-12-31T04:11:27.258Z,102459.59
2018-12-31T04:13:55.561Z,102463.53
2018-12-31T04:16:23.862Z,102468.59
2018-12-31T04:18:52.179Z,102461.19
2018-12-31T04:21:20.733Z,102463.45
2018-12-31T04:23:49.054Z,102461.86
2018-12-31T04:26:17.366Z,102472.09
2018-12-31T04:28:45.693Z,102468.27
2018-12-31T04:31:14.243Z,102464.88
2018-12-31T04:33:42.568Z,102457.95
2018-12-31T04:36:10.867Z,102462.53
2018-12-31T04:38:39.425Z,102470.78
2018-12-31T04:41:07.729Z,102469.58
2018-12-31T04:43:36.018Z,102471.63
2018-12-31T04:46:04.336Z,102475.38
2018-12-31T04:48:32.623Z,102476.97
2018-12-31T04:51:00.938Z,102473.38
2018-12-31T04:53:29.239Z,102473.50
2018-12-31T04:55:57.567Z,102469.08
2018-12-31T04:58:25.870Z,102468.23
2018-12-31T05:00:54.157Z,102470.75
2018-12-31T05:03:22.476Z,102477.13
2018-12-31T05:05:50.778Z,102480.03
2018-12-31T05:08:19.350Z,102475.98
2018-12-31T05:10:47.647Z,102479.72
2018-12-31T05:13:15.950Z,102477.01
2018-12-31T05:15:44.279Z,102472.47
2018-12-31T05:18:12.583Z,102472.47
2018-12-31T05:20:40.898Z,102475.22
2018-12-31T05:23:09.193Z,102479.05
2018-12-31T05:25:37.497Z,102468.92
2018-12-31T05:28:05.800Z,102474.27
2018-12-31T05:30:34.195Z,102471.75
2018-12-31T05:33:02.444Z,102469.40
2018-12-31T05:35:30.771Z,102474.66
2018-12-31T05:37:59.075Z,102486.50
2018-12-31T05:40:27.383Z,102483.98
2018-12-31T05:42:55.681Z,102481.16
2018-12-31T05:45:23.994Z,102481.91
2018-12-31T05:47:52.295Z,102482.16
2018-12-31T05:50:20.581Z,102476.42
2018-12-31T05:52:48.901Z,102489.12
2018-12-31T05:55:17.429Z,102490.80
2018-12-31T05:57:45.741Z,102493.23
2018-12-31T06:00:14.042Z,102499.14
2018-12-31T06:02:45.065Z,102500.81
2018-12-31T06:05:13.353Z,102498.10
2018-12-31T06:07:41.665Z,102491.52
2018-12-31T06:10:09.956Z,102492.84
2018-12-31T06:12:38.274Z,102489.81
2018-12-31T06:15:06.902Z,102490.41
2018-12-31T06:17:35.214Z,102498.55
2018-12-31T06:20:03.536Z,102491.52
2018-12-31T06:22:32.065Z,102490.77
2018-12-31T06:25:00.370Z,102500.34
2018-12-31T06:27:28.927Z,102502.33
2018-12-31T06:29:57.247Z,102510.50
2018-12-31T06:32:25.539Z,102512.09
2018-12-31T06:34:53.862Z,102515.01
2018-12-31T06:37:22.185Z,102518.36
2018-12-31T06:39:50.754Z,102518.64
2018-12-31T06:42:19.057Z,102519.59
2018-12-31T06:44:47.369Z,102522.11
2018-12-31T06:47:15.682Z,102518.28
2018-12-31T06:49:43.970Z,102523.55
2018-12-31T06:52:12.278Z,102520.44
2018-12-31T06:54:40.568Z,102528.69
2018-12-31T06:57:08.881Z,102531.32
2018-12-31T06:59:37.170Z,102534.80
2018-12-31T07:02:05.477Z,102535.75
2018-12-31T07:04:33.781Z,102539.70
2018-12-31T07:07:02.100Z,102540.17
2018-12-31T07:09:30.410Z,102540.65
2018-12-31T07:11:58.717Z,102549.86
2018-12-31T07:14:27.017Z,102554.73
2018-12-31T07:16:55.321Z,102555.41
2018-12-31T07:19:23.624Z,102554.29
2018-12-31T07:21:51.910Z,102555.60
2018-12-31T07:24:20.225Z,102554.77
2018-12-31T07:26:48.513Z,102563.02
2018-12-31T07:29:16.824Z,102565.66
2018-12-31T07:31:45.377Z,102567.84
2018-12-31T07:34:13.697Z,102569.05
2018-12-31T07:36:41.997Z,102571.67
2018-12-31T07:39:10.306Z,102568.96
2018-12-31T07:41:38.593Z,102573.35
2018-12-31T07:44:07.141Z,102571.95
2018-12-31T07:46:35.462Z,102580.69
2018-12-31T07:49:03.769Z,102579.48
2018-12-31T07:51:32.085Z,102579.01
2018-12-31T07:54:00.375Z,102578.06
2018-12-31T07:56:28.685Z,102585.11
2018-12-31T07:58:56.974Z,102587.16
2018-12-31T08:01:25.267Z,102590.66
2018-12-31T08:03:53.586Z,102595.81
2018-12-31T08:06:21.878Z,102593.09
2018-12-31T08:08:50.197Z,102595.73
2018-12-31T08:11:18.494Z,102607.57
2018-12-31T08:13:46.809Z,102599.20
2018-12-31T08:16:15.114Z,102603.98
2018-12-31T08:18:43.409Z,102597.29
2018-12-31T08:21:11.725Z,102606.14
2018-12-31T08:23:40.021Z,102597.29
2018-12-31T08:26:08.325Z,102599.45
2018-12-31T08:28:36.621Z,102606.67
2018-12-31T08:31:04.935Z,102605.75
2018-12-31T08:33:33.253Z,102606.03
2018-12-31T08:36:01.551Z,102615.12
2018-12-31T08:38:29.876Z,102614.77
2018-12-31T08:40:58.194Z,102622.55
2018-12-31T08:43:26.502Z,102622.35
2018-12-31T08:45:54.804Z,102620.84
2018-12-31T08:48:23.114Z,102622.91
2018-12-31T08:50:51.408Z,102620.72
2018-12-31T08:53:19.735Z,102618.84
2018-12-31T08:55:48.047Z,102619.33
2018-12-31T08:58:16.591Z,102622.23
2018-12-31T09:00:44.913Z,102620.44
2018-12-31T09:03:13.208Z,102625.71
2018-12-31T09:05:41.514Z,102618.45
2018-12-31T09:08:09.808Z,102620.44
2018-12-31T09:10:38.118Z,102622.39
2018-12-31T09:13:06.410Z,102623.98
2018-12-31T09:15:34.961Z,102617.29
2018-12-31T09:18:03.284Z,102620.20
2018-12-31T09:20:31.580Z,102612.30
2018-12-31T09:22:59.893Z,102616.61
2018-12-31T09:25:28.437Z,102624.43
2018-12-31T09:27:56.760Z,102626.86
2018-12-31T09:30:25.065Z,102627.70
2018-12-31T09:32:53.382Z,102633.05
2018-12-31T09:35:21.929Z,102632.41
2018-12-31T09:37:50.222Z,102627.34
2018-12-31T09:40:18.541Z,102634.77
2018-12-31T09:42:46.839Z,102627.74
2018-12-31T09:45:15.163Z,102636.64
2018-12-31T09:47:43.471Z,102636.53
2018-12-31T09:50:11.787Z,102635.77
2018-12-31T09:52:40.100Z,102631.30
2018-12-31T09:55:08.408Z,102627.77
2018-12-31T09:57:36.714Z,102625.00
2018-12-31T10:00:06.701Z,102620.31
2018-12-31T10:02:35.013Z,102627.06
2018-12-31T10:05:03.392Z,102622.14
2018-12-31T10:07:31.699Z,102614.69
2018-12-31T10:09:59.992Z,102618.98
2018-12-31T10:12:28.548Z,102622.14
2018-12-31T10:14:56.852Z,102620.07
2018-12-31T10:17:25.418Z,102623.30
2018-12-31T10:19:53.975Z,102627.41
2018-12-31T10:22:22.552Z,102628.80
2018-12-31T10:24:50.854Z,102626.48
2018-12-31T10:27:19.184Z,102619.27
2018-12-31T10:29:47.736Z,102620.63
2018-12-31T10:32:16.046Z,102620.53
2018-12-31T10:34:44.340Z,102620.89
2018-12-31T10:37:12.648Z,102625.75
2018-12-31T10:39:41.227Z,102630.19
2018-12-31T10:42:09.541Z,102625.12
2018-12-31T10:44:38.114Z,102622.97
2018-12-31T10:47:06.454Z,102630.81
2018-12-31T10:49:34.759Z,102634.71
2018-12-31T10:52:03.062Z,102634.23
2018-12-31T10:54:31.427Z,102628.60
2018-12-31T10:56:59.735Z,102621.73
2018-12-31T10:59:28.279Z,102623.17
2018-12-31T11:01:56.597Z,102620.78
2018-12-31T11:04:24.971Z,102615.30
2018-12-31T11:06:53.283Z,102604.93
2018-12-31T11:09:21.596Z,102605.86
2018-12-31T11:11:49.882Z,102612.66
2018-12-31T11:14:18.196Z,102599.95
2018-12-31T11:16:46.489Z,102602.30
2018-12-31T11:19:15.045Z,102610.83
2018-12-31T11:21:43.338Z,102606.55
2018-12-31T11:24:12.753Z,102600.08
2018-12-31T11:26:41.131Z,102601.48
2018-12-31T11:29:09.823Z,102596.42
2018-12-31T11:31:38.378Z,102601.75
2018-12-31T11:34:06.918Z,102597.02
2018-12-31T11:36:35.231Z,102593.16
2018-12-31T11:39:04.163Z,102590.37
2018-12-31T11:41:32.487Z,102594.74
2018-12-31T11:44:01.021Z,102594.89
2018-12-31T11:46:29.339Z,102590.58
2018-12-31T11:48:57.654Z,102586.27
2018-12-31T11:51:25.958Z,102589.73
2018-12-31T11:53:54.269Z,102580.98
2018-12-31T11:56:22.573Z,102584.47
2018-12-31T11:58:50.894Z,102582.33
2018-12-31T12:01:19.376Z,102584.19
2018-12-31T12:03:47.684Z,102574.12
2018-12-31T12:06:15.974Z,102571.48
2018-12-31T12:08:44.293Z,102568.84
2018-12-31T12:11:13.033Z,102566.92
2018-12-31T12:13:41.586Z,102560.23
2018-12-31T12:16:09.891Z,102555.95
2018-12-31T12:18:38.430Z,102558.44
2018-12-31T12:21:06.740Z,102555.20
2018-12-31T12:23:35.030Z,102551.98
2018-12-31T12:26:03.347Z,102550.09
2018-12-31T12:28:31.655Z,102558.37
2018-12-31T12:30:59.988Z,102555.37
2018-12-31T12:33:28.280Z,102558.84
2018-12-31T12:35:56.588Z,102562.20
2018-12-31T12:38:24.897Z,102566.78
2018-12-31T12:40:53.457Z,102565.02
2018-12-31T12:43:21.775Z,102559.47
2018-12-31T12:45:50.331Z,102559.47
2018-12-31T12:48:18.641Z,102564.39
2018-12-31T12:50:46.939Z,102565.73
2018-12-31T12:53:15.267Z,102570.91
2018-12-31T12:55:43.572Z,102569.19
2018-12-31T12:58:12.122Z,102575.03
2018-12-31T13:00:40.444Z,102565.80
2018-12-31T13:03:09.240Z,102575.72
2018-12-31T13:05:37.566Z,102572.46
2018-12-31T13:08:06.139Z,102569.95
2018-12-31T13:10:34.439Z,102569.15
2018-12-31T13:13:02.751Z,102567.95
2018-12-31T13:15:31.334Z,102567.11
2018-12-31T13:17:59.656Z,102568.43
2018-12-31T13:20:27.974Z,102568.91
2018-12-31T13:22:56.271Z,102565.67
2018-12-31T13:25:24.851Z,102563.78
2018-12-31T13:27:53.418Z,102562.83
2018-12-31T13:30:21.743Z,102566.20
2018-12-31T13:32:50.040Z,102558.92
2018-12-31T13:35:18.371Z,102558.22
2018-12-31T13:37:46.661Z,102559.33
2018-12-31T13:40:14.955Z,102564.55
2018-12-31T13:42:43.262Z,102555.87
2018-12-31T13:45:11.570Z,102563.25
2018-12-31T13:47:39.889Z,102562.12
2018-12-31T13:50:08.206Z,102562.95
2018-12-31T13:52:36.510Z,102564.97
2018-12-31T13:55:05.447Z,102560.05
2018-12-31T13:57:33.761Z,102558.87
2018-12-31T14:00:02.069Z,102557.27
2018-12-31T14:02:30.625Z,102551.30
2018-12-31T14:04:58.954Z,102558.51
2018-12-31T14:07:27.430Z,102556.50
2018-12-31T14:09:55.755Z,102558.80
2018-12-31T14:12:24.062Z,102566.14
2018-12-31T14:14:52.381Z,102561.70
2018-12-31T14:17:20.693Z,102563.28
2018-12-31T14:19:49.195Z,102550.94
2018-12-31T14:22:17.508Z,102554.98
2018-12-31T14:24:45.815Z,102563.28
2018-12-31T14:27:14.109Z,102560.73
2018-12-31T14:29:42.657Z,102564.43
2018-12-31T14:32:11.496Z,102563.57
2018-12-31T14:34:39.807Z,102564.48
2018-12-31T14:37:08.115Z,102568.25
2018-12-31T14:39:36.417Z,102567.41
2018-12-31T14:42:04.748Z,102564.06
2018-12-31T14:44:33.037Z,102565.59
2018-12-31T14:47:01.363Z,102569.84
2018-12-31T14:49:29.667Z,102569.70
2018-12-31T14:51:58.237Z,102565.27
2018-12-31T14:54:26.539Z,102569.70
2018-12-31T14:56:55.707Z,102571.14
2018-12-31T14:59:24.282Z,102569.91
2018-12-31T15:01:52.595Z,102572.39
2018-12-31T15:04:20.886Z,102573.44
2018-12-31T15:06:49.426Z,102575.23
2018-12-31T15:09:17.752Z,102578.83
2018-12-31T15:11:46.055Z,102579.31
2018-12-31T15:14:14.382Z,102582.03
2018-12-31T15:16:42.698Z,102584.79
2018-12-31T15:19:11.264Z,102582.99
2018-12-31T15:21:39.579Z,102589.52
2018-12-31T15:24:08.248Z,102594.91
2018-12-31T15:26:36.563Z,102585.61
2018-12-31T15:29:04.890Z,102584.89
2018-12-31T15:31:33.211Z,102589.77
2018-12-31T15:34:01.522Z,102593.72
2018-12-31T15:36:30.068Z,102596.75
2018-12-31T15:38:58.644Z,102599.83
2018-12-31T15:41:27.186Z,102599.47
2018-12-31T15:43:55.490Z,102607.22
2018-12-31T15:46:23.789Z,102609.30
2018-12-31T15:48:52.365Z,102609.42
2018-12-31T15:51:20.659Z,102603.04
2018-12-31T15:53:48.965Z,102608.03
2018-12-31T15:56:17.512Z,102604.48
2018-12-31T15:58:45.819Z,102602.24
2018-12-31T16:01:14.140Z,102606.91
2018-12-31T16:03:42.630Z,102609.47
2018-12-31T16:06:11.186Z,102609.94
2018-12-31T16:08:39.723Z,102611.34
2018-12-31T16:11:08.279Z,102609.19
2018-12-31T16:13:36.590Z,102612.02
2018-12-31T16:16:05.672Z,102597.09
2018-12-31T16:18:33.982Z,102594.63
2018-12-31T16:21:02.284Z,102592.67
2018-12-31T16:23:30.869Z,102597.58
2018-12-31T16:25:59.412Z,102589.69
2018-12-31T16:28:27.706Z,102588.84
2018-12-31T16:30:56.319Z,102591.99
2018-12-31T16:33:24.571Z,102591.95
2018-12-31T16:35:53.140Z,102591.00
2018-12-31T16:38:21.446Z,102590.16
2018-12-31T16:40:49.981Z,102589.41
2018-12-31T16:43:18.308Z,102583.10
2018-12-31T16:45:46.607Z,102583.94
2018-12-31T16:48:14.993Z,102585.62
2018-12-31T16:50:43.294Z,102586.58
2018-12-31T16:53:11.834Z,102583.58
2018-12-31T16:55:40.427Z,102582.73
2018-12-31T16:58:08.733Z,102581.42
2018-12-31T17:00:37.053Z,102582.66
2018-12-31T17:03:05.611Z,102582.66
2018-12-31T17:05:33.917Z,102578.23
2018-12-31T17:08:02.229Z,102582.55
2018-12-31T17:10:30.774Z,102583.61
2018-12-31T17:12:59.092Z,102577.12
2018-12-31T17:15:27.706Z,102586.81
2018-12-31T17:17:56.967Z,102585.86
2018-12-31T17:20:25.252Z,102585.86
2018-12-31T17:22:53.739Z,102586.61
2018-12-31T17:25:22.296Z,102582.30
2018-12-31T17:27:50.871Z,102583.02
2018-12-31T17:30:19.175Z,102578.71
2018-12-31T17:32:47.494Z,102582.55
2018-12-31T17:35:16.091Z,102584.41
2018-12-31T17:37:44.414Z,102580.16
2018-12-31T17:40:12.711Z,102580.35
2018-12-31T17:42:41.018Z,102583.58
2018-12-31T17:45:09.327Z,102579.98
2018-12-31T17:47:37.890Z,102578.59
2018-12-31T17:50:07.337Z,102583.66
2018-12-31T17:52:35.640Z,102576.98
2018-12-31T17:55:04.024Z,102568.97
2018-12-31T17:57:32.316Z,102574.88
2018-12-31T18:00:00.668Z,102580.45
2018-12-31T18:02:28.937Z,102583.84
2018-12-31T18:04:57.260Z,102584.41
2018-12-31T18:07:25.575Z,102586.73
2018-12-31T18:09:53.909Z,102585.84
2018-12-31T18:12:22.202Z,102583.57
2018-12-31T18:14:50.907Z,102586.56
2018-12-31T18:17:19.217Z,102587.16
2018-12-31T18:19:47.758Z,102587.16
2018-12-31T18:22:16.093Z,102592.42
2018-12-31T18:24:44.409Z,102590.52
2018-12-31T18:27:12.736Z,102590.91
2018-12-31T18:29:41.271Z,102586.48
2018-12-31T18:32:09.580Z,102587.32
2018-12-31T18:34:37.872Z,102588.48
2018-12-31T18:37:06.175Z,102593.07
2018-12-31T18:39:34.497Z,102595.31
2018-12-31T18:42:02.814Z,102598.42
2018-12-31T18:44:31.132Z,102593.36
2018-12-31T18:46:59.671Z,102599.09
2018-12-31T18:49:27.967Z,102603.72
2018-12-31T18:51:56.542Z,102602.92
2018-12-31T18:54:25.108Z,102595.05
2018-12-31T18:56:53.427Z,102596.37
2018-12-31T18:59:21.978Z,102593.34
2018-12-31T19:01:50.293Z,102613.08
2018-12-31T19:04:18.594Z,102609.33
2018-12-31T19:06:47.136Z,102610.77
2018-12-31T19:09:15.673Z,102618.02
2018-12-31T19:11:44.035Z,102617.39
2018-12-31T19:14:12.332Z,102620.02
2018-12-31T19:16:40.891Z,102615.23
2018-12-31T19:19:09.189Z,102614.55
2018-12-31T19:21:37.660Z,102617.66
2018-12-31T19:24:05.975Z,102615.34
2018-12-31T19:26:34.507Z,102607.45
2018-12-31T19:29:02.832Z,102606.49
2018-12-31T19:31:31.123Z,102603.86
2018-12-31T19:33:59.514Z,102606.97
2018-12-31T19:36:27.880Z,102606.69
2018-12-31T19:38:56.114Z,102607.35
2018-12-31T19:41:24.440Z,102597.02
2018-12-31T19:43:52.731Z,102595.98
2018-12-31T19:46:21.051Z,102590.08
2018-12-31T19:48:49.348Z,102585.47
2018-12-31T19:51:17.641Z,102582.84
2018-12-31T19:53:45.950Z,102574.53
2018-12-31T19:56:14.240Z,102574.53
2018-12-31T19:58:42.554Z,102574.25
2018-12-31T20:01:11.130Z,102569.75
2018-12-31T20:03:39.457Z,102567.95
2018-12-31T20:06:07.744Z,102559.78
2018-12-31T20:08:36.042Z,102564.88
2018-12-31T20:11:04.349Z,102554.83
2018-12-31T20:13:32.645Z,102560.17
2018-12-31T20:16:00.950Z,102549.39
2018-12-31T20:18:29.236Z,102552.11
2018-12-31T20:20:57.540Z,102550.98
2018-12-31T20:23:25.850Z,102548.36
2018-12-31T20:25:54.158Z,102548.47
2018-12-31T20:28:22.743Z,102544.16
2018-12-31T20:30:51.295Z,102549.30
2018-12-31T20:33:19.607Z,102551.45
2018-12-31T20:35:47.920Z,102545.28
2018-12-31T20:38:16.256Z,102537.27
2018-12-31T20:40:44.560Z,102539.98
2018-12-31T20:43:14.436Z,102534.33
2018-12-31T20:45:42.764Z,102536.16
2018-12-31T20:48:11.070Z,102534.55
2018-12-31T20:50:39.378Z,102536.27
2018-12-31T20:53:07.695Z,102524.03
2018-12-31T20:55:36.235Z,102525.35
2018-12-31T20:58:04.547Z,102515.95
2018-12-31T21:00:32.866Z,102515.86
2018-12-31T21:03:01.184Z,102515.47
2018-12-31T21:05:29.482Z,102512.00
2018-12-31T21:07:57.815Z,102510.97
2018-12-31T21:10:26.094Z,102510.49
2018-12-31T21:12:54.638Z,102509.09
2018-12-31T21:15:23.190Z,102506.18
2018-12-31T21:17:51.741Z,102508.25
2018-12-31T21:20:20.919Z,102504.70
2018-12-31T21:22:49.222Z,102511.72
2018-12-31T21:25:17.512Z,102508.89
2018-12-31T21:27:45.826Z,102508.02
2018-12-31T21:30:14.129Z,102507.83
2018-12-31T21:32:42.454Z,102499.85
2018-12-31T21:35:10.741Z,102497.11
2018-12-31T21:37:39.226Z,102500.97
2018-12-31T21:40:08.567Z,102502.73
2018-12-31T21:42:36.887Z,102503.20
2018-12-31T21:45:05.788Z,102500.49
2018-12-31T21:47:34.118Z,102501.89
2018-12-31T21:50:02.421Z,102504.80
2018-12-31T21:52:30.727Z,102503.84
2018-12-31T21:54:59.027Z,102505.36
2018-12-31T21:57:27.566Z,102507.39
2018-12-31T21:59:56.113Z,102504.41
2018-12-31T22:02:24.410Z,102495.19
2018-12-31T22:04:53.023Z,102497.63
2018-12-31T22:07:21.338Z,102499.30
2018-12-31T22:09:49.637Z,102488.50
2018-12-31T22:12:17.958Z,102493.40
2018-12-31T22:14:46.332Z,102495.39
2018-12-31T22:17:14.902Z,102483.66
2018-12-31T22:19:43.454Z,102484.87
2018-12-31T22:22:12.006Z,102481.23
2018-12-31T22:24:40.297Z,102477.37
2018-12-31T22:27:08.601Z,102475.98
2018-12-31T22:29:36.888Z,102471.81
2018-12-31T22:32:05.486Z,102474.37
2018-12-31T22:34:34.016Z,102468.99
2018-12-31T22:37:02.340Z,102470.95
2018-12-31T22:39:30.625Z,102468.91
2018-12-31T22:41:58.933Z,102466.48
2018-12-31T22:44:27.238Z,102461.41
2018-12-31T22:46:55.545Z,102459.30
2018-12-31T22:49:23.853Z,102460.02
2018-12-31T22:51:52.158Z,102457.05
2018-12-31T22:54:20.462Z,102453.58
2018-12-31T22:56:48.764Z,102448.69
2018-12-31T22:59:17.159Z,102450.79
2018-12-31T23:01:45.745Z,102444.10
2018-12-31T23:04:14.051Z,102447.09
2018-12-31T23:06:42.364Z,102449.64
2018-12-31T23:09:11.424Z,102449.53
2018-12-31T23:11:40.115Z,102447.34
2018-12-31T23:14:08.410Z,102446.81
2018-12-31T23:16:36.739Z,102445.75
2018-12-31T23:19:05.283Z,102436.83
2018-12-31T23:21:33.832Z,102432.04
2018-12-31T23:24:02.215Z,102425.81
2018-12-31T23:26:30.590Z,102424.86
2018-12-31T23:28:59.145Z,102418.17
2018-12-31T23:31:27.453Z,102415.82
2018-12-31T23:33:55.916Z,102415.26
2018-12-31T23:36:24.221Z,102414.78
2018-12-31T23:38:53.072Z,102412.04
2018-12-31T23:41:21.374Z,102407.66
2018-12-31T23:43:49.677Z,102415.98
2018-12-31T23:46:17.968Z,102405.48
2018-12-31T23:48:46.272Z,102406.99
2018-12-31T23:51:14.956Z,102405.48
2018-12-31T23:53:43.242Z,102408.41
2018-12-31T23:56:11.811Z,102410.95
2018-12-31T23:58:40.115Z,102418.09
